.
WxDataArchive / Data Records for 2006-09-29
2006-09-28 September 2006 2006-09-30

Data Records for Friday, 29 September 2006

Time	Temp	Chill	HIndex	Humid	Dewpt	 Wind 	HiWind	WindDir	Rain 	Barom 
-----	----	-----	------	-----	-----	------	------	-------	-----	----- 
00:00	45.1	45.1	45.1	86	41.2	0	0	---	0.00	29.899 
00:05	45.1	45.1	45.1	85	40.9	0	1	315	0.00	29.899 
00:10	44.9	44.9	44.9	86	41.0	0	0	---	0.00	29.899 
00:15	44.8	44.8	44.8	86	40.9	0	1	315	0.00	29.899 
00:20	44.6	44.6	44.6	86	40.7	0	1	315	0.00	29.899 
00:25	44.6	44.6	44.6	86	40.7	0	1	315	0.00	29.899 
00:30	44.5	44.5	44.5	86	40.6	0	1	315	0.00	29.899 
00:35	44.5	44.5	44.5	86	40.6	0	1	315	0.00	29.899 
00:40	44.3	44.3	44.3	86	40.4	0	1	315	0.00	29.899 
00:45	44.3	44.3	44.3	86	40.4	0	1	315	0.00	29.900 
00:50	44.3	44.3	44.3	86	40.4	0	1	315	0.00	29.900 
00:55	44.2	44.2	44.2	86	40.3	0	1	315	0.00	29.900 
01:00	44.1	44.1	44.1	86	40.2	0	1	315	0.00	29.899 
01:05	44.1	44.1	44.1	86	40.2	0	1	315	0.00	29.899 
01:10	44.1	44.1	44.1	86	40.2	0	1	315	0.00	29.899 
01:15	43.9	43.9	43.9	86	40.0	0	1	315	0.00	29.900 
01:20	43.9	43.9	43.9	86	40.0	0	0	---	0.00	29.900 
01:25	43.8	43.8	43.8	87	40.2	0	1	315	0.00	29.900 
01:30	43.6	43.6	43.6	87	40.0	0	1	315	0.00	29.900 
01:35	43.5	43.5	43.5	87	39.9	0	1	315	0.00	29.900 
01:40	43.5	43.5	43.5	87	39.9	0	1	315	0.00	29.900 
01:45	43.3	43.3	43.3	87	39.7	0	0	---	0.00	29.903 
01:50	43.2	43.2	43.2	88	39.9	0	1	315	0.00	29.903 
01:55	43.1	43.1	43.1	88	39.8	0	1	315	0.00	29.903 
02:00	42.9	42.9	42.9	88	39.6	0	0	---	0.00	29.903 
02:05	42.8	42.8	42.8	89	39.8	0	0	---	0.00	29.903 
02:10	42.8	42.8	42.8	89	39.8	0	1	315	0.00	29.903 
02:15	42.8	42.8	42.8	89	39.8	0	1	315	0.00	29.906 
02:20	42.8	42.8	42.8	89	39.8	0	1	315	0.00	29.906 
02:25	42.6	42.6	42.6	89	39.6	0	0	---	0.00	29.906 
02:30	42.6	42.6	42.6	89	39.6	0	0	---	0.00	29.909 
02:35	42.5	42.5	42.5	89	39.5	0	1	315	0.00	29.909 
02:40	42.3	42.3	42.3	89	39.3	0	0	---	0.00	29.909 
02:45	42.2	42.2	42.2	89	39.2	0	0	---	0.00	29.914 
02:50	42.1	42.1	42.1	89	39.1	0	0	---	0.00	29.914 
02:55	41.9	41.9	41.9	90	39.2	0	0	---	0.00	29.914 
03:00	41.8	41.8	41.8	90	39.1	0	0	---	0.00	29.911 
03:05	41.6	41.6	41.6	90	38.9	0	0	---	0.00	29.911 
03:10	41.5	41.5	41.5	90	38.8	0	0	---	0.00	29.911 
03:15	41.3	41.3	41.3	91	38.9	0	0	---	0.00	29.909 
03:20	41.3	41.3	41.3	91	38.9	0	0	---	0.00	29.909 
03:25	41.3	41.3	41.3	92	39.2	0	0	---	0.00	29.909 
03:30	41.5	41.5	41.5	92	39.4	0	0	---	0.00	29.908 
03:35	41.8	41.8	41.8	92	39.6	0	0	---	0.00	29.908 
03:40	41.9	41.9	41.9	92	39.7	0	0	---	0.00	29.908 
03:45	42.1	42.1	42.1	92	39.9	0	0	---	0.00	29.908 
03:50	42.3	42.3	42.3	92	40.1	0	0	---	0.00	29.908 
03:55	42.5	42.5	42.5	92	40.3	0	0	---	0.00	29.908 
04:00	42.6	42.6	42.6	92	40.4	0	0	---	0.00	29.908 
04:05	42.8	42.8	42.8	91	40.4	0	1	315	0.00	29.908 
04:10	42.9	42.9	42.9	91	40.5	0	0	---	0.00	29.908 
04:15	43.1	43.1	43.1	90	40.4	0	0	---	0.00	29.910 
04:20	43.1	43.1	43.1	90	40.4	0	0	---	0.00	29.910 
04:25	43.2	43.2	43.2	90	40.5	0	0	---	0.00	29.910 
04:30	43.2	43.2	43.2	90	40.5	0	0	---	0.00	29.912 
04:35	43.2	43.2	43.2	90	40.5	0	0	---	0.00	29.912 
04:40	43.3	43.3	43.3	90	40.6	0	0	---	0.00	29.912 
04:45	43.3	43.3	43.3	90	40.6	0	0	---	0.00	29.913 
04:50	43.3	43.3	43.3	90	40.6	0	1	315	0.00	29.913 
04:55	43.3	43.3	43.3	89	40.3	0	0	---	0.00	29.913 
05:00	43.3	43.3	43.3	89	40.3	0	0	---	0.00	29.917 
05:05	43.3	43.3	43.3	90	40.6	0	1	315	0.00	29.917 
05:10	43.3	43.3	43.3	90	40.6	0	1	315	0.00	29.917 
05:15	43.3	43.3	43.3	90	40.6	0	1	315	0.00	29.922 
05:20	43.5	43.5	43.5	90	40.8	0	0	---	0.00	29.922 
05:25	43.5	43.5	43.5	90	40.8	0	0	---	0.00	29.922 
05:30	43.6	43.6	43.6	90	40.9	0	1	315	0.00	29.928 
05:35	43.6	43.6	43.6	90	40.9	0	1	315	0.00	29.928 
05:40	43.6	43.6	43.6	90	40.9	0	1	315	0.00	29.928 
05:45	43.6	43.6	43.6	89	40.6	0	1	315	0.00	29.934 
05:50	43.6	43.6	43.6	89	40.6	0	0	---	0.00	29.934 
05:55	43.6	43.6	43.6	90	40.9	0	0	---	0.00	29.934 
06:00	43.6	43.6	43.6	90	40.9	0	1	315	0.00	29.934 
06:05	43.8	43.8	43.8	90	41.1	0	0	---	0.00	29.934 
06:10	43.8	43.8	43.8	90	41.1	0	0	---	0.00	29.934 
06:15	43.8	43.8	43.8	90	41.1	0	0	---	0.00	29.937 
06:20	43.8	43.8	43.8	90	41.1	0	0	---	0.00	29.937 
06:25	43.8	43.8	43.8	90	41.1	0	0	---	0.00	29.937 
06:30	43.8	43.8	43.8	90	41.1	0	0	---	0.00	29.936 
06:35	43.6	43.6	43.6	90	40.9	0	0	---	0.00	29.936 
06:40	43.6	43.6	43.6	90	40.9	0	0	---	0.00	29.936 
06:45	43.6	43.6	43.6	90	40.9	0	0	---	0.00	29.937 
06:50	43.6	43.6	43.6	90	40.9	0	0	---	0.00	29.937 
06:55	43.6	43.6	43.6	90	40.9	0	0	---	0.00	29.937 
07:00	43.6	43.6	43.6	90	40.9	0	0	---	0.00	29.937 
07:05	43.6	43.6	43.6	90	40.9	0	0	---	0.00	29.937 
07:10	43.6	43.6	43.6	90	40.9	0	0	---	0.00	29.937 
07:15	43.5	43.5	43.5	91	41.0	0	0	---	0.00	29.938 
07:20	43.5	43.5	43.5	91	41.0	0	0	---	0.00	29.938 
07:25	43.5	43.5	43.5	91	41.0	0	0	---	0.00	29.938 
07:30	43.5	43.5	43.5	91	41.0	0	0	---	0.00	29.938 
07:35	43.5	43.5	43.5	91	41.0	0	0	---	0.00	29.938 
07:40	43.5	43.5	43.5	91	41.0	0	0	---	0.00	29.938 
07:45	43.5	43.5	43.5	91	41.0	0	0	---	0.00	29.939 
07:50	43.5	43.5	43.5	92	41.3	0	0	---	0.00	29.939 
07:55	43.5	43.5	43.5	92	41.3	0	0	---	0.00	29.939 
08:00	43.6	43.6	43.6	92	41.4	0	0	---	0.00	29.940 
08:05	43.8	43.8	43.8	92	41.6	0	0	---	0.00	29.940 
08:10	43.9	43.9	43.9	92	41.7	0	0	---	0.00	29.940 
08:15	44.1	44.1	44.1	92	41.9	0	0	---	0.00	29.946 
08:20	44.3	44.3	44.3	92	42.1	0	0	---	0.00	29.946 
08:25	44.5	44.5	44.5	91	42.0	0	0	---	0.00	29.946 
08:30	44.6	44.6	44.6	90	41.9	0	1	315	0.00	29.946 
08:35	44.9	44.9	44.9	89	41.9	0	1	315	0.00	29.946 
08:40	45.1	45.1	45.1	88	41.8	0	1	315	0.00	29.946 
08:45	45.2	45.2	45.2	87	41.6	0	1	315	0.00	29.948 
08:50	45.5	45.5	45.5	87	41.9	0	2	315	0.00	29.948 
08:55	45.8	45.8	45.8	86	41.9	0	1	270	0.00	29.948 
09:00	46.2	46.2	46.2	85	41.9	0	2	270	0.00	29.950 
09:05	46.7	46.7	46.7	84	42.1	0	1	270	0.00	29.950 
09:10	47.1	47.1	47.1	82	41.9	0	1	270	0.00	29.950 
09:15	47.7	47.7	47.7	83	42.8	0	1	292	0.00	29.949 
09:20	48.0	48.0	48.0	81	42.5	0	2	292	0.00	29.949 
09:25	48.0	48.0	48.0	78	41.5	0	2	292	0.00	29.949 
09:30	48.0	48.0	48.0	80	42.1	0	1	292	0.00	29.949 
09:35	48.2	48.2	48.2	78	41.7	0	1	292	0.00	29.949 
09:40	48.2	48.2	48.2	77	41.3	0	0	---	0.00	29.949 
09:45	48.2	48.2	48.2	77	41.3	0	0	---	0.00	29.951 
09:50	48.2	48.2	48.2	77	41.3	0	0	---	0.00	29.951 
09:55	48.5	48.5	48.5	77	41.6	0	0	---	0.00	29.951 
10:00	49.1	49.1	49.1	75	41.5	0	1	292	0.00	29.952 
10:05	50.1	50.1	50.1	72	41.4	1	3	292	0.00	29.952 
10:10	51.1	51.1	51.1	73	42.7	0	2	90	0.00	29.952 
10:15	52.0	52.0	52.0	66	41.0	1	3	90	0.00	29.950 
10:20	52.8	52.8	52.8	63	40.6	0	2	90	0.00	29.950 
10:25	53.1	53.1	53.1	65	41.6	0	1	180	0.00	29.950 
10:30	53.3	53.3	53.3	66	42.2	0	2	180	0.00	29.950 
10:35	53.5	53.5	53.5	66	42.4	0	2	225	0.00	29.950 
10:40	53.9	53.9	53.9	64	42.0	1	3	248	0.00	29.950 
10:45	54.4	54.4	54.4	64	42.5	1	3	248	0.00	29.948 
10:50	55.0	55.0	55.0	66	43.9	1	4	90	0.00	29.948 
10:55	55.4	55.4	55.4	64	43.4	1	3	270	0.00	29.948 
11:00	55.6	55.6	55.6	62	42.8	1	6	22	0.00	29.947 
11:05	55.4	55.4	55.4	63	43.0	1	5	248	0.00	29.947 
11:10	55.6	55.6	55.6	64	43.6	1	3	248	0.00	29.947 
11:15	55.9	55.9	55.9	60	42.2	2	3	248	0.00	29.948 
11:20	55.9	55.9	55.9	62	43.1	2	6	270	0.00	29.948 
11:25	56.2	56.2	56.2	61	42.9	2	6	248	0.00	29.948 
11:30	56.2	56.2	56.2	60	42.5	1	3	270	0.00	29.949 
11:35	56.2	56.2	56.2	59	42.1	2	5	248	0.00	29.949 
11:40	56.2	56.2	56.2	58	41.6	2	4	248	0.00	29.949 
11:45	55.9	55.9	55.9	61	42.6	1	4	248	0.00	29.944 
11:50	56.3	56.3	56.3	61	43.0	1	4	270	0.00	29.944 
11:55	56.3	56.3	56.3	61	43.0	2	3	270	0.00	29.944 
12:00	56.6	56.6	56.6	56	41.1	2	6	292	0.00	29.943 
12:05	56.2	56.2	56.2	57	41.2	1	3	248	0.00	29.943 
12:10	56.7	56.7	56.7	58	42.1	2	6	248	0.00	29.943 
12:15	56.7	56.7	56.7	54	40.2	3	6	248	0.00	29.941 
12:20	56.0	56.0	56.0	56	40.5	2	5	248	0.00	29.941 
12:25	56.2	56.2	56.2	57	41.2	2	5	270	0.00	29.941 
12:30	57.2	57.2	57.2	56	41.6	2	4	270	0.00	29.937 
12:35	56.5	56.5	56.5	54	40.1	2	5	248	0.00	29.937 
12:40	56.3	56.3	56.3	57	41.3	2	6	248	0.00	29.937 
12:45	56.3	56.3	56.3	55	40.3	3	6	270	0.00	29.935 
12:50	55.6	55.6	55.6	53	38.7	2	5	270	0.00	29.935 
12:55	56.0	56.0	56.0	56	40.5	1	3	270	0.00	29.935 
13:00	57.5	57.5	57.5	54	41.0	1	4	248	0.00	29.933 
13:05	58.0	58.0	58.0	49	38.9	2	5	248	0.00	29.933 
13:10	58.3	58.3	58.3	50	39.7	2	5	270	0.00	29.933 
13:15	58.1	58.1	58.1	52	40.6	2	4	248	0.00	29.933 
13:20	57.2	57.2	57.2	51	39.2	1	5	248	0.00	29.933 
13:25	56.7	56.7	56.7	52	39.3	2	5	248	0.00	29.933 
13:30	57.5	57.5	57.5	53	40.5	2	6	248	0.00	29.930 
13:35	58.4	58.4	58.4	50	39.8	2	10	270	0.00	29.930 
13:40	58.9	58.9	58.9	50	40.3	2	10	112	0.00	29.930 
13:45	59.6	59.6	59.6	51	41.4	2	4	338	0.00	29.918 
13:50	59.3	59.3	59.3	50	40.7	2	4	248	0.00	29.918 
13:55	58.9	58.9	58.9	51	40.8	2	4	270	0.00	29.918 
14:00	58.4	58.4	58.4	47	38.2	2	3	248	0.00	29.916 
14:05	58.4	58.4	58.4	48	38.8	2	4	248	0.00	29.916 
14:10	59.0	59.0	59.0	49	39.9	1	4	248	0.00	29.916 
14:15	59.6	59.6	59.6	43	37.1	2	4	270	0.00	29.913 
14:20	59.6	59.6	59.6	40	35.3	3	9	248	0.00	29.913 
14:25	60.1	60.1	60.1	42	36.9	2	5	248	0.00	29.913 
14:30	60.2	60.2	60.2	42	37.0	2	4	248	0.00	29.902 
14:35	59.6	59.6	59.6	45	38.2	1	5	270	0.00	29.902 
14:40	59.2	59.2	59.2	43	36.7	1	4	248	0.00	29.902 
14:45	59.6	59.6	59.6	49	40.4	1	4	248	0.00	29.897 
14:50	60.1	60.1	60.1	44	38.1	1	5	248	0.00	29.897 
14:55	60.5	60.5	60.5	43	37.9	1	4	270	0.00	29.897 
15:00	60.9	60.9	60.9	47	40.5	1	4	248	0.00	29.888 
15:05	61.0	61.0	61.0	46	40.1	2	5	270	0.00	29.888 
15:10	61.0	61.0	61.0	39	35.9	2	5	248	0.00	29.888 
15:15	60.7	60.7	60.7	42	37.5	1	4	248	0.00	29.883 
15:20	60.5	60.5	60.5	46	39.6	1	3	270	0.00	29.883 
15:25	60.4	60.4	60.4	42	37.2	2	4	270	0.00	29.883 
15:30	59.8	59.8	59.8	40	35.4	2	5	270	0.00	29.883 
15:35	59.2	59.2	59.2	42	36.1	1	4	248	0.00	29.883 
15:40	58.9	58.9	58.9	43	36.4	1	3	248	0.00	29.883 
15:45	59.0	59.0	59.0	43	36.5	2	4	248	0.00	29.880 
15:50	59.3	59.3	59.3	43	36.8	3	6	270	0.00	29.880 
15:55	59.6	59.6	59.6	43	37.1	3	5	248	0.00	29.880 
16:00	59.9	59.9	59.9	47	39.6	1	3	248	0.00	29.873 
16:05	60.1	60.1	60.1	45	38.7	1	4	248	0.00	29.873 
16:10	60.2	60.2	60.2	46	39.3	0	2	292	0.00	29.873 
16:15	60.1	60.1	60.1	44	38.1	1	5	270	0.00	29.869 
16:20	59.6	59.6	59.6	42	36.5	1	3	248	0.00	29.869 
16:25	59.2	59.2	59.2	46	38.4	0	2	248	0.00	29.869 
16:30	59.0	59.0	59.0	45	37.7	1	3	248	0.00	29.869 
16:35	59.0	59.0	59.0	47	38.8	0	3	225	0.00	29.869 
16:40	59.2	59.2	59.2	46	38.4	0	2	248	0.00	29.869 
16:45	59.3	59.3	59.3	43	36.8	0	1	248	0.00	29.867 
16:50	59.3	59.3	59.3	46	38.5	0	1	248	0.00	29.867 
16:55	59.3	59.3	59.3	43	36.8	1	2	248	0.00	29.867 
17:00	59.3	59.3	59.3	45	38.0	0	2	248	0.00	29.862 
17:05	59.2	59.2	59.2	43	36.7	1	3	248	0.00	29.862 
17:10	59.2	59.2	59.2	43	36.7	1	3	248	0.00	29.862 
17:15	59.2	59.2	59.2	43	36.7	1	2	270	0.00	29.859 
17:20	59.3	59.3	59.3	46	38.5	1	3	248	0.00	29.859 
17:25	59.3	59.3	59.3	45	38.0	1	3	248	0.00	29.859 
17:30	59.3	59.3	59.3	45	38.0	0	3	112	0.00	29.857 
17:35	59.3	59.3	59.3	45	38.0	1	3	112	0.00	29.857 
17:40	59.2	59.2	59.2	43	36.7	1	4	248	0.00	29.857 
17:45	59.2	59.2	59.2	44	37.3	0	2	248	0.00	29.855 
17:50	59.0	59.0	59.0	42	35.9	1	4	248	0.00	29.855 
17:55	59.0	59.0	59.0	42	35.9	1	2	225	0.00	29.855 
18:00	58.9	58.9	58.9	44	37.0	1	3	248	0.00	29.855 
18:05	59.0	59.0	59.0	46	38.2	1	3	248	0.00	29.855 
18:10	59.3	59.3	59.3	42	36.2	1	2	270	0.00	29.855 
18:15	59.6	59.6	59.6	42	36.5	1	2	270	0.00	29.852 
18:20	59.6	59.6	59.6	44	37.7	0	2	270	0.00	29.852 
18:25	59.2	59.2	59.2	41	35.5	1	4	248	0.00	29.852 
18:30	58.7	58.7	58.7	43	36.3	1	4	270	0.00	29.857 
18:35	58.4	58.4	58.4	45	37.1	0	1	270	0.00	29.857 
18:40	58.1	58.1	58.1	46	37.4	0	3	270	0.00	29.857 
18:45	57.8	57.8	57.8	47	37.7	0	1	248	0.00	29.856 
18:50	57.6	57.6	57.6	48	38.1	0	1	248	0.00	29.856 
18:55	57.3	57.3	57.3	49	38.3	0	1	248	0.00	29.856 
19:00	57.2	57.2	57.2	50	38.7	0	0	---	0.00	29.855 
19:05	57.0	57.0	57.0	50	38.5	0	0	---	0.00	29.855 
19:10	56.7	56.7	56.7	50	38.3	0	1	248	0.00	29.855 
19:15	56.6	56.6	56.6	49	37.7	0	1	248	0.00	29.855 
19:20	56.6	56.6	56.6	49	37.7	0	1	248	0.00	29.855 
19:25	56.6	56.6	56.6	50	38.2	0	1	225	0.00	29.855 
19:30	56.6	56.6	56.6	51	38.7	0	1	225	0.00	29.852 
19:35	56.5	56.5	56.5	52	39.1	0	1	225	0.00	29.852 
19:40	56.3	56.3	56.3	52	38.9	0	1	225	0.00	29.852 
19:45	56.2	56.2	56.2	52	38.8	0	1	225	0.00	29.852 
19:50	56.0	56.0	56.0	52	38.6	0	1	225	0.00	29.852 
19:55	56.0	56.0	56.0	53	39.1	0	1	225	0.00	29.852 
20:00	55.9	55.9	55.9	53	39.0	0	1	225	0.00	29.852 
20:05	55.7	55.7	55.7	53	38.8	0	1	225	0.00	29.852 
20:10	55.6	55.6	55.6	54	39.2	0	1	225	0.00	29.852 
20:15	55.4	55.4	55.4	54	39.0	0	3	90	0.00	29.849 
20:20	55.4	55.4	55.4	55	39.5	0	1	90	0.00	29.849 
20:25	55.3	55.3	55.3	54	38.9	0	2	90	0.00	29.849 
20:30	55.1	55.1	55.1	54	38.8	0	2	90	0.00	29.849 
20:35	55.1	55.1	55.1	55	39.2	0	2	90	0.00	29.849 
20:40	55.0	55.0	55.0	55	39.1	0	2	90	0.00	29.849 
20:45	54.8	54.8	54.8	55	38.9	0	1	90	0.00	29.849 
20:50	54.8	54.8	54.8	55	38.9	0	2	90	0.00	29.849 
20:55	54.7	54.7	54.7	56	39.3	0	2	90	0.00	29.849 
21:00	54.7	54.7	54.7	56	39.3	1	3	90	0.00	29.852 
21:05	54.5	54.5	54.5	56	39.1	0	2	112	0.00	29.852 
21:10	54.5	54.5	54.5	57	39.6	0	1	90	0.00	29.852 
21:15	54.4	54.4	54.4	57	39.5	0	2	90	0.00	29.852 
21:20	54.2	54.2	54.2	58	39.7	0	1	112	0.00	29.852 
21:25	54.1	54.1	54.1	58	39.7	1	2	112	0.00	29.852 
21:30	53.9	53.9	53.9	58	39.5	0	2	112	0.00	29.851 
21:35	53.6	53.6	53.6	58	39.2	0	1	112	0.00	29.851 
21:40	53.3	53.3	53.3	59	39.3	0	1	112	0.00	29.851 
21:45	53.1	53.1	53.1	60	39.6	0	1	112	0.00	29.854 
21:50	52.8	52.8	52.8	59	38.9	0	3	112	0.00	29.854 
21:55	52.8	52.8	52.8	59	38.9	0	3	248	0.00	29.854 
22:00	52.6	52.6	52.6	60	39.1	0	2	248	0.00	29.859 
22:05	52.8	52.8	52.8	60	39.3	0	2	248	0.00	29.859 
22:10	52.8	52.8	52.8	60	39.3	0	1	248	0.00	29.859 
22:15	52.9	52.9	52.9	61	39.8	0	2	248	0.00	29.849 
22:20	52.9	52.9	52.9	62	40.2	0	0	---	0.00	29.849 
22:25	52.9	52.9	52.9	63	40.7	0	1	248	0.00	29.849 
22:30	52.9	52.9	52.9	63	40.7	0	1	248	0.00	29.848 
22:35	52.8	52.8	52.8	62	40.1	0	1	248	0.00	29.848 
22:40	52.8	52.8	52.8	64	41.0	0	2	248	0.00	29.848 
22:45	53.1	53.1	53.1	64	41.2	1	4	248	0.00	29.856 
22:50	53.1	53.1	53.1	64	41.2	1	3	248	0.00	29.856 
22:55	53.2	53.2	53.2	64	41.3	1	2	248	0.00	29.856 
23:00	53.2	53.2	53.2	65	41.7	0	2	248	0.00	29.855 
23:05	53.1	53.1	53.1	68	42.8	0	0	---	0.00	29.855 
23:10	52.9	52.9	52.9	68	42.6	0	0	---	0.00	29.855 
23:15	52.8	52.8	52.8	69	42.9	0	0	---	0.00	29.848 
23:20	52.6	52.6	52.6	70	43.1	0	0	---	0.00	29.848 
23:25	52.5	52.5	52.5	70	43.0	0	0	---	0.00	29.848 
23:30	52.3	52.3	52.3	71	43.2	0	1	248	0.00	29.853 
23:35	52.2	52.2	52.2	73	43.8	0	1	248	0.00	29.853 
23:40	52.0	52.0	52.0	75	44.3	0	1	248	0.00	29.853 
23:45	51.6	51.6	51.6	76	44.3	0	2	248	0.01	29.863 
23:50	51.4	51.4	51.4	78	44.8	1	3	248	0.00	29.863 
23:55	51.3	51.3	51.3	79	45.0	1	5	248	0.00	29.863 

CoCoRaHS
IN-AL-39
A2 Web Hosting
Creative Commons License
GoDaddy
Look for:

loaded 2017-12-11 14:07:23 • last modified 2010-11-18 10:43:29
Privacy PolicyDisclaimer
• wx.awcolley.com is powered by PmWiki v.2002016 •
• all content (unless otherwise noted) © 2017 A W Colley